Helendale, California
Current Conditions -  °F | °C
As of 10:35 PM on Tuesday 25 Nov 2014 (Local Time) from KVCV Reporting Station
NA  
Wind Chill: 38°   Ceiling: NA
Heat Index: 41°   Visibility: 10mi
Dew Point:   Wind: 5mph
Humidity: 19%   Direction: 170°S
Pressure: 30.4"   Gusts: NA
Location:  34.74°N, 117.33°W
Report Text: KVCV 260635Z AUTO 17004KT 10SM 05/M17 A3040 RMK AO2
Loading
Personal Weather Stations






























Interactive Weather Map New forecast layout! Learn more

10-Day Weather Forecast

Advertisements
Track Severe Weather on mobile